Time;durP1;ratioP1;P1;durP2;ratioP2;P2;SDS_P1;SDS_P2;PMS_P1;PMS_P2;Temp;Humidity;BMP_temperature;BMP_pressure;BME280_temperature;BME280_humidity;BME280_pressure;Samples;Min_cycle;Max_cycle;Signal;HPM_P1;HPM_P2
2021/12/22 00:01:38;;;;;;;30.92;21.27;;;-1.90;99.90;;;;;;2118071;67;20318;-69
2021/12/22 00:04:25;;;;;;;36.97;21.40;;;-1.80;99.90;;;;;;2137706;66;20209;-67
2021/12/22 00:07:07;;;;;;;32.58;22.20;;;-1.90;99.90;;;;;;2145202;66;20170;-68
2021/12/22 00:09:48;;;;;;;35.40;22.60;;;-2.00;99.90;;;;;;2153197;66;20331;-70
2021/12/22 00:12:30;;;;;;;29.83;20.80;;;-2.00;99.90;;;;;;2139772;66;20375;-69
2021/12/22 00:15:14;;;;;;;33.10;21.58;;;-2.00;99.90;;;;;;2138705;66;20167;-69
2021/12/22 00:17:59;;;;;;;40.58;22.83;;;-1.90;99.90;;;;;;2145433;66;20324;-68
2021/12/22 00:20:41;;;;;;;37.22;21.77;;;-0.80;99.90;;;;;;2139205;66;20256;-68
2021/12/22 00:23:25;;;;;;;33.25;21.48;;;-2.10;99.90;;;;;;2138353;66;20320;-67
2021/12/22 00:26:09;;;;;;;35.67;22.33;;;-2.00;99.90;;;;;;2123502;67;20195;-67
2021/12/22 00:28:52;;;;;;;35.65;21.90;;;-2.10;99.90;;;;;;2111040;67;20366;-68
2021/12/22 00:31:56;;;;;;;;;;;-2.10;99.90;;;;;;2108294;67;20300;-68
2021/12/22 00:34:50;;;;;;;30.17;19.83;;;-2.10;99.90;;;;;;2120414;67;20052;-69
2021/12/22 00:37:47;;;;;;;31.58;22.35;;;-2.10;99.90;;;;;;2111017;67;20415;-69
2021/12/22 00:40:33;;;;;;;36.60;22.58;;;-2.20;99.90;;;;;;2106082;67;20181;-69
2021/12/22 00:43:17;;;;;;;33.72;21.38;;;-2.10;99.90;;;;;;2103131;67;20310;-70
2021/12/22 00:45:59;;;;;;;34.55;22.35;;;-2.10;99.90;;;;;;2121439;67;20728;-67
2021/12/22 00:48:45;;;;;;;34.53;21.50;;;-2.10;99.90;;;;;;2129220;67;20255;-68
2021/12/22 00:51:26;;;;;;;29.13;19.90;;;-2.20;99.90;;;;;;2129529;67;20843;-68
2021/12/22 00:54:09;;;;;;;31.95;21.50;;;-2.10;99.90;;;;;;2131905;67;20192;-68
2021/12/22 00:56:56;;;;;;;36.72;23.05;;;-2.20;99.90;;;;;;2129464;66;20373;-68
2021/12/22 00:59:40;;;;;;;35.53;22.50;;;-2.10;99.90;;;;;;2129456;67;20164;-69
2021/12/22 01:02:25;;;;;;;38.03;21.83;;;-2.20;99.90;;;;;;2127052;67;20380;-68
2021/12/22 01:05:09;;;;;;;31.15;21.90;;;-2.20;99.90;;;;;;2137337;67;20255;-68
2021/12/22 01:07:50;;;;;;;34.50;22.65;;;-2.20;99.90;;;;;;2132167;67;20805;-68
2021/12/22 01:10:34;;;;;;;33.50;21.35;;;-1.60;99.90;;;;;;2124846;67;20161;-67
2021/12/22 01:13:21;;;;;;;31.90;20.45;;;-1.90;99.90;;;;;;2116143;67;20268;-68
2021/12/22 01:16:04;;;;;;;38.05;22.42;;;-2.30;99.90;;;;;;2091190;68;20294;-68
2021/12/22 01:18:46;;;;;;;31.48;21.33;;;-2.30;99.90;;;;;;2093207;68;20183;-69
2021/12/22 01:21:58;;;;;;;38.20;22.50;;;-2.30;99.90;;;;;;2085215;68;20208;-68
2021/12/22 01:24:33;;;;;;;33.28;21.73;;;-2.40;99.90;;;;;;2084305;68;20230;-68
2021/12/22 01:27:21;;;;;;;36.70;22.35;;;-2.40;99.90;;;;;;2096092;68;20228;-69
2021/12/22 01:30:21;;;;;;;36.03;21.85;;;-2.40;99.90;;;;;;2097846;68;20811;-68
2021/12/22 01:33:06;;;;;;;38.58;21.52;;;-2.40;99.90;;;;;;2092038;68;20170;-66
2021/12/22 01:35:48;;;;;;;35.55;22.88;;;-2.40;99.90;;;;;;2105784;67;20718;-68
2021/12/22 01:38:29;;;;;;;33.83;22.02;;;-2.50;99.90;;;;;;2104705;67;20170;-68
2021/12/22 01:41:13;;;;;;;38.63;21.58;;;-2.50;99.90;;;;;;2092617;68;20217;-68
2021/12/22 01:43:57;;;;;;;33.92;20.85;;;-2.50;99.90;;;;;;2086049;68;20272;-68
2021/12/22 01:49:50;;;;;;;37.15;20.02;;;-2.50;99.90;;;;;;2080479;68;20247;-67
2021/12/22 01:52:32;;;;;;;32.20;22.08;;;-2.50;99.90;;;;;;2091982;67;20374;-68
2021/12/22 01:55:34;;;;;;;43.17;21.73;;;-2.50;99.90;;;;;;2096751;67;20297;-69
2021/12/22 01:58:31;;;;;;;37.70;22.15;;;-2.50;99.90;;;;;;2110726;67;20388;-69
2021/12/22 02:01:15;;;;;;;36.35;20.70;;;-2.50;99.90;;;;;;2114535;67;20347;-69
2021/12/22 02:03:58;;;;;;;32.70;20.50;;;-2.50;99.90;;;;;;2107325;67;20181;-68
2021/12/22 02:06:46;;;;;;;28.75;21.00;;;-2.60;99.90;;;;;;2109064;67;20194;-68
2021/12/22 02:09:49;;;;;;;31.00;21.40;;;-2.50;99.90;;;;;;2111050;67;20645;-69
2021/12/22 02:12:35;;;;;;;29.55;19.48;;;-2.50;99.90;;;;;;2126960;67;20401;-69
2021/12/22 02:15:17;;;;;;;34.50;21.92;;;-2.50;99.90;;;;;;2139756;66;20171;-68
2021/12/22 02:18:01;;;;;;;30.15;19.77;;;-2.50;99.90;;;;;;2121305;67;20373;-69
2021/12/22 02:20:43;;;;;;;32.83;21.77;;;-2.50;99.90;;;;;;2128548;67;20277;-68
2021/12/22 02:23:26;;;;;;;33.90;22.45;;;-2.50;99.90;;;;;;2125087;67;20176;-68
2021/12/22 02:26:18;;;;;;;41.50;23.25;;;-2.50;99.90;;;;;;2125286;67;20372;-68
2021/12/22 02:29:04;;;;;;;33.30;20.50;;;-2.50;99.90;;;;;;2123052;67;20322;-67
2021/12/22 02:31:52;;;;;;;;;;;-2.50;99.90;;;;;;2111194;67;20375;-68
2021/12/22 02:34:42;;;;;;;31.50;21.65;;;-2.50;99.90;;;;;;2107725;67;20294;-68
2021/12/22 02:37:26;;;;;;;35.55;21.88;;;-2.50;99.90;;;;;;2119314;67;20197;-68
2021/12/22 02:40:15;;;;;;;34.47;21.98;;;-2.60;99.90;;;;;;2128892;67;20333;-67
2021/12/22 02:43:04;;;;;;;35.53;22.65;;;-2.50;99.90;;;;;;2112357;67;20240;-67
2021/12/22 02:45:48;;;;;;;36.03;21.25;;;-2.60;99.90;;;;;;2116082;67;20396;-69
2021/12/22 02:48:32;;;;;;;33.42;20.65;;;-2.60;99.90;;;;;;2118397;67;20338;-68
2021/12/22 02:51:16;;;;;;;32.50;21.05;;;-2.60;99.90;;;;;;2104204;68;20174;-67
2021/12/22 02:59:42;;;;;;;27.50;19.55;;;-2.60;99.90;;;;;;2103703;67;20233;-68
2021/12/22 03:02:34;;;;;;;;;;;-2.70;99.90;;;;;;2109919;67;20211;-68
2021/12/22 03:05:18;;;;;;;36.55;21.20;;;-2.70;99.90;;;;;;2108761;67;20124;-68
2021/12/22 03:08:02;;;;;;;32.55;20.08;;;-2.70;99.90;;;;;;2108964;67;20805;-67
2021/12/22 03:10:44;;;;;;;27.48;19.52;;;-2.70;99.90;;;;;;2106090;67;20363;-67
2021/12/22 03:13:26;;;;;;;35.45;19.35;;;-2.70;99.90;;;;;;2113564;67;20217;-67
2021/12/22 03:16:09;;;;;;;29.10;18.45;;;-2.70;99.90;;;;;;2117473;67;20207;-67
2021/12/22 03:18:54;;;;;;;28.05;18.15;;;-3.40;99.90;;;;;;2121610;67;20195;-68
2021/12/22 03:21:41;;;;;;;29.30;17.40;;;-2.70;99.90;;;;;;2126876;67;20715;-68
2021/12/22 03:24:26;;;;;;;25.88;15.90;;;-2.10;99.90;;;;;;2120176;67;20417;-68
2021/12/22 03:27:09;;;;;;;25.05;17.95;;;-2.70;99.90;;;;;;2124916;67;20258;-67
2021/12/22 03:29:55;;;;;;;;;;;-2.60;99.90;;;;;;2132461;67;20264;-67
2021/12/22 03:32:39;;;;;;;27.35;16.48;;;-2.70;99.90;;;;;;2125725;67;20068;-68
2021/12/22 03:35:25;;;;;;;25.75;16.90;;;-2.70;99.90;;;;;;2128070;67;20192;-68
2021/12/22 03:38:17;;;;;;;25.92;17.15;;;-2.70;99.90;;;;;;2140917;66;20214;-68
2021/12/22 03:41:02;;;;;;;27.73;17.42;;;-2.70;99.90;;;;;;2128196;67;20226;-68
2021/12/22 03:43:44;;;;;;;28.27;17.40;;;-2.70;99.90;;;;;;2129931;67;20241;-68
2021/12/22 03:46:26;;;;;;;25.98;16.73;;;-2.70;99.90;;;;;;2131652;67;20769;-69
2021/12/22 03:49:10;;;;;;;26.95;17.88;;;-2.70;99.90;;;;;;2123879;67;20287;-68
2021/12/22 03:51:52;;;;;;;29.60;17.02;;;-2.50;99.90;;;;;;2093178;68;20317;-69
2021/12/22 03:54:33;;;;;;;27.55;17.45;;;-2.80;99.90;;;;;;2113167;67;20178;-67
2021/12/22 03:57:16;;;;;;;28.23;17.25;;;-2.80;99.90;;;;;;2102035;67;20728;-67
2021/12/22 04:00:02;;;;;;;27.52;16.05;;;-2.80;99.90;;;;;;2119930;67;20173;-68
2021/12/22 04:02:46;;;;;;;;;;;-2.90;99.90;;;;;;2123587;67;20224;-68
2021/12/22 04:05:27;;;;;;;22.15;15.70;;;-2.90;99.90;;;;;;2130754;67;20044;-68
2021/12/22 04:08:11;;;;;;;27.15;16.35;;;-2.90;99.90;;;;;;2124992;67;20297;-68
2021/12/22 04:10:54;;;;;;;25.27;16.48;;;-2.90;99.90;;;;;;2124884;67;20264;-67
2021/12/22 04:13:39;;;;;;;26.02;15.98;;;-2.90;99.90;;;;;;2117597;67;20168;-68
2021/12/22 04:16:23;;;;;;;;;;;-2.90;99.90;;;;;;2124463;67;20552;-68
2021/12/22 04:19:08;;;;;;;23.20;15.35;;;-2.90;99.90;;;;;;2106000;67;20448;-68
2021/12/22 04:21:52;;;;;;;24.25;15.05;;;-2.90;99.90;;;;;;2123353;67;20332;-67
2021/12/22 04:24:37;;;;;;;27.35;15.43;;;-2.60;99.90;;;;;;2118772;67;20822;-68
2021/12/22 04:27:19;;;;;;;23.52;15.25;;;-2.90;99.90;;;;;;2123917;67;20193;-69
2021/12/22 04:30:00;;;;;;;25.05;15.45;;;-2.90;99.90;;;;;;2119073;67;20217;-67
2021/12/22 04:32:43;;;;;;;31.98;16.27;;;-2.90;99.90;;;;;;2119015;67;20184;-67
2021/12/22 04:35:29;;;;;;;25.38;14.60;;;-2.70;99.90;;;;;;2137443;67;20302;-68
2021/12/22 04:38:10;;;;;;;24.20;14.80;;;-2.90;99.90;;;;;;2115586;67;20769;-68
2021/12/22 04:40:52;;;;;;;26.20;14.57;;;-2.90;99.90;;;;;;2112890;67;20252;-68
2021/12/22 04:43:34;;;;;;;21.38;14.30;;;-2.90;99.90;;;;;;2123363;67;20692;-68
2021/12/22 04:46:15;;;;;;;25.20;15.57;;;-2.90;99.90;;;;;;2133143;67;20868;-68
2021/12/22 04:48:58;;;;;;;26.02;16.40;;;-2.90;99.90;;;;;;2141515;66;20308;-68
2021/12/22 04:51:50;;;;;;;31.02;16.25;;;-2.90;99.90;;;;;;2132113;66;20175;-69
2021/12/22 04:54:42;;;;;;;23.33;16.42;;;-2.50;99.90;;;;;;2138141;66;20259;-67
2021/12/22 04:57:24;;;;;;;25.17;15.15;;;-3.00;99.90;;;;;;2132719;67;20191;-68
2021/12/22 05:00:10;;;;;;;25.67;15.27;;;-3.00;99.90;;;;;;2131369;67;20679;-68
2021/12/22 05:02:53;;;;;;;21.90;15.07;;;-3.00;99.90;;;;;;2124993;67;20733;-68
2021/12/22 05:05:37;;;;;;;;;;;-2.40;99.90;;;;;;2124249;67;20206;-68
2021/12/22 05:08:19;;;;;;;24.98;14.95;;;-3.10;99.90;;;;;;2138088;67;20505;-68
2021/12/22 05:11:01;;;;;;;27.67;15.85;;;-3.10;99.90;;;;;;2123457;67;20192;-69
2021/12/22 05:13:44;;;;;;;21.80;13.40;;;-3.00;99.90;;;;;;2118949;67;20326;-68
2021/12/22 05:16:29;;;;;;;22.52;15.15;;;-3.10;99.90;;;;;;2123879;67;20331;-68
2021/12/22 05:19:14;;;;;;;28.30;15.43;;;-3.10;99.90;;;;;;2118308;67;20179;-68
2021/12/22 05:21:56;;;;;;;23.63;15.18;;;-3.00;99.90;;;;;;2131159;67;20261;-68
2021/12/22 05:24:38;;;;;;;21.95;14.63;;;-3.10;99.90;;;;;;2135821;67;20305;-69
2021/12/22 05:27:20;;;;;;;22.17;14.02;;;-3.10;99.90;;;;;;2140556;66;20183;-68
2021/12/22 05:30:03;;;;;;;22.30;14.57;;;-3.10;99.90;;;;;;2137591;66;20206;-68
2021/12/22 05:32:44;;;;;;;20.58;13.82;;;-3.10;99.90;;;;;;2139210;66;20175;-68
2021/12/22 05:35:27;;;;;;;22.13;14.30;;;-3.10;99.90;;;;;;2130513;67;20224;-68
2021/12/22 05:38:12;;;;;;;25.88;14.68;;;-3.20;99.90;;;;;;2137357;66;20255;-69
2021/12/22 05:40:56;;;;;;;27.92;13.85;;;-3.10;99.90;;;;;;2127529;67;20247;-68
2021/12/22 05:43:42;;;;;;;23.33;15.75;;;-3.10;99.90;;;;;;2118238;67;20279;-69
2021/12/22 05:46:27;;;;;;;28.42;15.40;;;-3.10;99.90;;;;;;2112655;67;20252;-68
2021/12/22 05:49:08;;;;;;;24.92;14.85;;;-3.10;99.90;;;;;;2106960;67;20303;-67
2021/12/22 05:51:51;;;;;;;23.02;13.90;;;-3.20;99.90;;;;;;2122284;67;20297;-68
2021/12/22 05:54:35;;;;;;;22.20;14.02;;;-3.20;99.90;;;;;;2127481;67;20201;-68
2021/12/22 05:57:18;;;;;;;21.20;13.98;;;-3.20;99.90;;;;;;2111062;67;20367;-69
2021/12/22 06:00:05;;;;;;;22.73;13.65;;;-3.00;99.90;;;;;;2122103;67;20365;-68
2021/12/22 06:02:47;;;;;;;23.10;13.20;;;-3.20;99.90;;;;;;2106015;67;20310;-68
2021/12/22 06:05:33;;;;;;;24.20;14.45;;;-3.20;99.90;;;;;;2118411;67;20415;-68
2021/12/22 06:08:18;;;;;;;;;;;-3.20;99.90;;;;;;2110783;67;20779;-68
2021/12/22 06:11:02;;;;;;;23.88;13.45;;;-3.30;99.90;;;;;;2097027;68;20077;-68
2021/12/22 06:13:45;;;;;;;22.13;13.65;;;-3.30;99.90;;;;;;2095916;68;20308;-67
2021/12/22 06:16:30;;;;;;;22.60;13.13;;;-3.30;99.90;;;;;;2103546;67;20375;-68
2021/12/22 06:19:13;;;;;;;23.00;12.88;;;-3.30;99.90;;;;;;2107593;67;20181;-67
2021/12/22 06:21:55;;;;;;;23.08;13.55;;;-3.30;99.90;;;;;;2112102;67;20681;-68
2021/12/22 06:24:37;;;;;;;20.75;13.05;;;-3.30;99.90;;;;;;2097973;68;20255;-68
2021/12/22 06:27:19;;;;;;;23.10;14.25;;;-3.30;99.90;;;;;;2118405;67;20362;-68
2021/12/22 06:30:01;;;;;;;18.65;12.40;;;-3.40;99.90;;;;;;2105772;67;20305;-69
2021/12/22 06:32:43;;;;;;;21.63;13.00;;;-3.40;99.90;;;;;;2111389;67;20228;-68
2021/12/22 06:35:26;;;;;;;20.60;13.07;;;-3.40;99.90;;;;;;1913158;67;15085522;-68
2021/12/22 06:38:09;;;;;;;25.55;13.63;;;-3.40;99.90;;;;;;2139832;67;20179;-68
2021/12/22 06:40:51;;;;;;;21.60;13.10;;;-3.50;99.90;;;;;;2131088;67;20441;-68
2021/12/22 06:43:33;;;;;;;24.60;14.07;;;-3.50;99.90;;;;;;2132659;67;20466;-67
2021/12/22 06:46:16;;;;;;;22.00;12.93;;;-3.50;99.90;;;;;;2139927;67;20225;-67
2021/12/22 06:49:01;;;;;;;;;;;-3.50;99.90;;;;;;2133400;67;20327;-67
2021/12/22 06:51:43;;;;;;;22.38;12.90;;;-3.60;99.90;;;;;;2123620;67;20215;-68
2021/12/22 06:54:29;;;;;;;23.90;14.00;;;-3.70;99.90;;;;;;2118050;67;20287;-68
2021/12/22 06:57:18;;;;;;;23.30;14.23;;;-3.60;99.90;;;;;;2132160;67;20191;-67
2021/12/22 07:00:02;;;;;;;23.27;14.02;;;-3.60;99.90;;;;;;2132092;67;20297;-67
2021/12/22 07:02:43;;;;;;;18.48;12.45;;;-3.60;99.90;;;;;;2118353;67;20322;-67
2021/12/22 07:05:30;;;;;;;22.02;13.05;;;-3.70;99.90;;;;;;2124651;67;20204;-69
2021/12/22 07:08:14;;;;;;;19.67;13.63;;;-3.70;99.90;;;;;;2112040;67;20457;-68
2021/12/22 07:10:56;;;;;;;24.02;13.80;;;-3.70;99.90;;;;;;2129017;67;20744;-67
2021/12/22 07:13:39;;;;;;;26.25;12.85;;;-3.70;99.90;;;;;;2124891;67;20691;-69
2021/12/22 07:16:27;;;;;;;23.58;13.25;;;-3.70;99.90;;;;;;2141714;66;20674;-69
2021/12/22 07:19:25;;;;;;;20.95;12.65;;;-3.60;99.90;;;;;;2139628;66;20340;-69
2021/12/22 07:22:07;;;;;;;30.75;15.50;;;-3.70;99.90;;;;;;2138132;66;20458;-69
2021/12/22 07:24:49;;;;;;;20.55;12.65;;;-3.70;99.90;;;;;;2131202;67;20762;-69
2021/12/22 07:27:32;;;;;;;23.58;13.80;;;-3.70;99.90;;;;;;2129850;67;20385;-69
2021/12/22 07:30:13;;;;;;;24.52;12.88;;;-3.70;99.90;;;;;;2123554;67;20749;-70
2021/12/22 07:32:55;;;;;;;20.67;11.98;;;-3.60;99.90;;;;;;2129976;67;20230;-68
2021/12/22 07:36:01;;;;;;;24.95;13.63;;;-3.60;99.90;;;;;;2121012;67;20725;-69
2021/12/22 07:38:58;;;;;;;24.02;14.05;;;-3.60;99.90;;;;;;2122255;67;20196;-69
2021/12/22 07:41:42;;;;;;;24.20;12.98;;;-3.60;99.90;;;;;;2130930;67;20404;-68
2021/12/22 07:44:24;;;;;;;26.77;14.05;;;-3.50;99.90;;;;;;2151487;66;20653;-68
2021/12/22 07:47:08;;;;;;;25.58;13.65;;;-3.50;99.90;;;;;;2153213;66;20883;-69
2021/12/22 07:49:52;;;;;;;20.88;13.20;;;-3.60;99.90;;;;;;2159323;66;20352;-70
2021/12/22 07:52:33;;;;;;;21.13;11.40;;;-3.50;99.90;;;;;;2144283;66;20296;-69
2021/12/22 07:55:22;;;;;;;22.40;11.90;;;-3.30;99.90;;;;;;2141207;66;20240;-69
2021/12/22 07:58:03;;;;;;;20.63;11.63;;;-3.40;99.90;;;;;;2140745;66;20326;-71
2021/12/22 08:00:45;;;;;;;22.25;11.18;;;-3.40;99.90;;;;;;2136777;67;20324;-70
2021/12/22 08:03:28;;;;;;;26.50;12.90;;;-3.30;99.90;;;;;;2142942;66;20704;-69
2021/12/22 08:06:12;;;;;;;21.90;11.77;;;-3.10;99.90;;;;;;2152371;66;20174;-69
2021/12/22 08:08:56;;;;;;;22.48;12.98;;;-3.30;99.90;;;;;;2159343;66;20212;-71
2021/12/22 08:11:40;;;;;;;21.85;12.05;;;-3.30;99.90;;;;;;2139786;66;20283;-70
2021/12/22 08:14:23;;;;;;;20.50;11.38;;;-3.20;99.90;;;;;;2132421;67;20263;-68
2021/12/22 08:17:05;;;;;;;19.27;12.43;;;-3.20;99.90;;;;;;2144793;66;20170;-67
2021/12/22 08:19:50;;;;;;;21.58;12.20;;;-3.20;99.90;;;;;;2138306;67;20336;-68
2021/12/22 08:22:32;;;;;;;17.83;11.38;;;-3.10;99.90;;;;;;2131232;67;20338;-69
2021/12/22 08:25:15;;;;;;;21.63;12.05;;;-3.10;99.90;;;;;;2117184;67;20262;-69
2021/12/22 08:27:59;;;;;;;17.35;11.23;;;-3.00;99.90;;;;;;2109441;67;20177;-68
2021/12/22 08:30:42;;;;;;;20.35;12.20;;;-3.00;99.90;;;;;;2108068;67;20174;-69
2021/12/22 08:33:26;;;;;;;21.98;11.30;;;-2.90;99.90;;;;;;2102938;67;20340;-70
2021/12/22 08:39:09;;;;;;;22.20;12.85;;;-2.80;99.90;;;;;;2103108;67;20225;-68
2021/12/22 08:41:50;;;;;;;18.17;11.93;;;-2.70;99.90;;;;;;2108755;67;20260;-68
2021/12/22 08:44:33;;;;;;;20.27;11.40;;;-2.60;99.90;;;;;;2102091;68;20667;-69
2021/12/22 08:47:15;;;;;;;27.83;11.68;;;-2.60;99.90;;;;;;2108955;67;20398;-68
2021/12/22 08:49:58;;;;;;;16.58;10.77;;;-2.50;99.90;;;;;;2115825;67;20451;-68
2021/12/22 08:52:42;;;;;;;21.58;11.20;;;-2.40;99.90;;;;;;2129576;66;20211;-69
2021/12/22 08:55:25;;;;;;;20.63;11.50;;;-2.40;99.90;;;;;;2138283;66;20204;-68
2021/12/22 08:58:09;;;;;;;20.63;11.88;;;-2.30;99.90;;;;;;2144778;66;20610;-70
2021/12/22 09:00:51;;;;;;;17.98;10.75;;;-2.30;99.90;;;;;;2137261;67;20241;-69
2021/12/22 09:03:34;;;;;;;24.92;13.43;;;-2.20;99.90;;;;;;2143073;66;20375;-69
2021/12/22 09:06:15;;;;;;;20.42;12.63;;;-2.20;99.90;;;;;;2140079;66;20739;-69
2021/12/22 09:09:06;;;;;;;16.50;11.35;;;-2.20;99.90;;;;;;2151226;66;20673;-68
2021/12/22 09:11:50;;;;;;;21.27;11.73;;;-2.20;99.90;;;;;;2148481;66;20249;-69
2021/12/22 09:14:33;;;;;;;22.95;11.63;;;-2.10;99.90;;;;;;2140419;66;20263;-69
2021/12/22 09:17:17;;;;;;;20.13;11.88;;;-2.10;99.90;;;;;;2137037;67;20262;-68
2021/12/22 09:20:02;;;;;;;19.77;11.57;;;-2.10;99.90;;;;;;2132381;66;20215;-67
2021/12/22 09:22:44;;;;;;;20.95;11.40;;;-2.10;99.90;;;;;;2136763;67;20174;-69
2021/12/22 09:25:28;;;;;;;18.27;10.77;;;-2.10;99.90;;;;;;2109632;67;20177;-70
2021/12/22 09:28:14;;;;;;;19.65;11.32;;;-2.00;99.90;;;;;;2116881;67;20284;-69
2021/12/22 09:30:59;;;;;;;18.40;10.95;;;-2.00;99.90;;;;;;2103884;67;20365;-69
2021/12/22 09:33:45;;;;;;;18.10;10.18;;;-1.90;99.90;;;;;;2116582;67;20327;-69
2021/12/22 09:36:30;;;;;;;19.55;12.07;;;-1.60;99.90;;;;;;2122546;67;21868;-69
2021/12/22 09:39:16;;;;;;;18.95;11.80;;;-1.80;99.90;;;;;;2117308;67;20482;-69
2021/12/22 09:41:57;;;;;;;18.65;10.77;;;-1.80;99.90;;;;;;2128839;67;20787;-69
2021/12/22 09:44:44;;;;;;;20.60;11.30;;;-1.70;99.90;;;;;;2125201;67;20639;-69
2021/12/22 09:47:30;;;;;;;19.85;11.82;;;-1.60;99.90;;;;;;2145165;66;20403;-69
2021/12/22 09:50:13;;;;;;;19.13;10.85;;;-1.60;99.90;;;;;;2138163;66;20477;-70
2021/12/22 09:53:01;;;;;;;21.25;10.00;;;-1.50;99.90;;;;;;2130811;67;20274;-69
2021/12/22 09:55:43;;;;;;;21.20;11.07;;;-1.30;99.90;;;;;;2122361;67;20178;-74
2021/12/22 09:58:25;;;;;;;24.05;11.38;;;-1.40;99.90;;;;;;2122210;67;20217;-68
2021/12/22 10:01:07;;;;;;;19.88;10.93;;;-1.40;99.90;;;;;;2131640;67;20328;-76
2021/12/22 10:03:54;;;;;;;20.05;10.98;;;-1.40;99.90;;;;;;2153721;66;20275;-70
2021/12/22 10:06:36;;;;;;;19.77;11.25;;;-1.30;99.90;;;;;;2132359;67;20195;-74
2021/12/22 10:09:23;;;;;;;19.35;11.10;;;-1.30;99.90;;;;;;2147214;66;20313;-74
2021/12/22 10:12:06;;;;;;;23.10;11.00;;;-1.30;99.90;;;;;;2140289;66;20320;-73
2021/12/22 10:15:14;;;;;;;19.40;10.77;;;-1.30;99.90;;;;;;2143505;66;20301;-74
2021/12/22 10:18:09;;;;;;;24.33;11.13;;;-1.20;99.90;;;;;;2146453;66;20199;-75
2021/12/22 10:20:55;;;;;;;19.38;11.32;;;-1.20;99.90;;;;;;2143320;66;20175;-73
2021/12/22 10:23:47;;;;;;;22.85;11.07;;;-1.20;99.90;;;;;;2148911;66;20873;-72
2021/12/22 10:26:29;;;;;;;22.55;10.60;;;-1.10;99.90;;;;;;2146186;66;20389;-74
2021/12/22 10:29:10;;;;;;;24.15;11.55;;;-1.00;99.90;;;;;;2140504;66;20203;-73
2021/12/22 10:32:07;;;;;;;18.13;9.73;;;-1.10;99.90;;;;;;2143727;66;20246;-75
2021/12/22 10:35:05;;;;;;;20.42;11.00;;;-0.60;99.90;;;;;;2147653;66;20305;-72
2021/12/22 10:37:48;;;;;;;17.70;9.52;;;-0.90;99.90;;;;;;2157973;66;20193;-74
2021/12/22 10:40:32;;;;;;;15.15;10.18;;;-0.90;99.90;;;;;;2158325;66;20725;-74
2021/12/22 10:43:39;;;;;;;18.25;11.55;;;-1.00;99.90;;;;;;2159630;66;20354;-74
2021/12/22 10:46:35;;;;;;;18.33;10.50;;;-0.70;99.90;;;;;;2161270;66;20204;-73
2021/12/22 10:49:19;;;;;;;19.13;10.10;;;-0.60;99.90;;;;;;2165588;65;20244;-73
2021/12/22 10:51:59;;;;;;;17.80;10.45;;;-0.60;99.90;;;;;;2171920;65;20176;-74
2021/12/22 10:54:51;;;;;;;18.67;10.50;;;-0.60;99.90;;;;;;2153739;66;20230;-74
2021/12/22 10:57:47;;;;;;;18.05;9.43;;;-0.30;99.90;;;;;;2146458;66;20209;-77
2021/12/22 11:00:38;;;;;;;17.48;10.32;;;-0.50;99.90;;;;;;2154942;65;20325;-74
2021/12/22 11:03:18;;;;;;;18.98;10.80;;;-0.40;99.90;;;;;;2175045;65;21175;-73
2021/12/22 11:05:56;;;;;;;15.30;9.93;;;-0.30;99.90;;;;;;2186842;65;20188;-80
2021/12/22 11:08:35;;;;;;;14.93;10.02;;;-0.30;99.90;;;;;;2195141;65;20317;-70
2021/12/22 11:11:14;;;;;;;14.60;9.15;;;-0.30;99.90;;;;;;2194823;65;20169;-70
2021/12/22 11:14:06;;;;;;;15.38;9.85;;;-0.30;99.90;;;;;;2197744;65;20668;-72
2021/12/22 11:17:02;;;;;;;17.55;9.82;;;-0.20;99.90;;;;;;2203911;64;20188;-73
2021/12/22 11:19:49;;;;;;;18.30;10.05;;;-0.20;99.90;;;;;;2217911;64;20191;-74
2021/12/22 11:23:00;;;;;;;16.77;9.48;;;-0.10;99.90;;;;;;2218782;64;20243;-74
2021/12/22 11:25:50;;;;;;;15.80;9.93;;;-0.10;99.90;;;;;;2205166;65;20237;-74
2021/12/22 11:28:19;;;;;;;16.05;10.55;;;0.40;99.90;;;;;;2204227;64;20217;-73
2021/12/22 11:30:58;;;;;;;15.85;9.80;;;0.10;99.90;;;;;;2203358;64;20290;-75
2021/12/22 11:33:30;;;;;;;15.13;9.52;;;0.30;99.90;;;;;;2229148;64;20174;-75
2021/12/22 11:36:10;;;;;;;16.50;10.80;;;0.70;99.90;;;;;;2227899;64;20191;-75
2021/12/22 11:38:53;;;;;;;18.58;12.25;;;0.60;99.90;;;;;;2211774;64;20783;-74
2021/12/22 11:41:43;;;;;;;12.75;9.82;;;0.80;99.90;;;;;;2199063;65;20266;-75
2021/12/22 11:44:26;;;;;;;13.60;9.52;;;1.00;99.90;;;;;;2172331;65;20332;-75
2021/12/22 11:47:13;;;;;;;13.13;8.27;;;1.10;99.90;;;;;;2175519;65;20265;-75
2021/12/22 11:50:01;;;;;;;15.38;9.07;;;1.10;99.90;;;;;;2162904;65;20205;-73
2021/12/22 11:53:05;;;;;;;18.55;10.18;;;1.10;99.90;;;;;;2160936;66;20341;-73
2021/12/22 11:55:57;;;;;;;12.25;8.70;;;1.00;99.90;;;;;;2147116;66;20333;-79
2021/12/22 11:58:43;;;;;;;13.15;8.95;;;1.00;99.90;;;;;;2139998;66;20335;-75
2021/12/22 12:01:29;;;;;;;12.52;8.32;;;0.90;99.90;;;;;;2139039;66;20245;-74
2021/12/22 12:04:18;;;;;;;16.27;9.15;;;0.70;99.90;;;;;;2131413;67;20821;-74
2021/12/22 12:07:05;;;;;;;14.40;8.93;;;0.70;99.90;;;;;;2123990;67;20212;-73
2021/12/22 12:09:52;;;;;;;16.20;9.93;;;0.70;99.90;;;;;;2110887;67;21137;-74
2021/12/22 12:12:46;;;;;;;14.60;8.73;;;1.10;99.90;;;;;;2098910;68;20434;-74
2021/12/22 12:21:39;;;;;;;17.23;9.65;;;0.70;99.90;;;;;;2090398;68;20204;-73
2021/12/22 12:22:17;;;;;;;15.85;9.73;;;0.70;99.90;;;;;;2102199;67;20175;-73
2021/12/22 12:25:13;;;;;;;13.60;8.93;;;0.80;99.90;;;;;;2117940;67;20735;-75
2021/12/22 12:27:55;;;;;;;13.00;9.25;;;0.80;99.90;;;;;;2109027;67;20219;-73
2021/12/22 12:30:47;;;;;;;14.25;9.82;;;0.80;99.90;;;;;;2112767;67;20739;-73
2021/12/22 12:33:32;;;;;;;13.73;8.98;;;0.90;99.90;;;;;;2113927;67;20361;-74
2021/12/22 12:36:16;;;;;;;15.05;9.05;;;0.50;99.90;;;;;;2111648;67;20401;-74
2021/12/22 12:39:01;;;;;;;14.18;10.05;;;1.30;99.90;;;;;;2121808;67;20266;-71
2021/12/22 12:42:01;;;;;;;14.15;10.45;;;2.20;99.90;;;;;;2103817;67;20398;-70
2021/12/22 12:44:43;;;;;;;16.75;11.13;;;1.60;99.90;;;;;;2093898;68;20696;-71
2021/12/22 12:47:30;;;;;;;12.80;8.25;;;1.70;99.90;;;;;;2113232;67;20872;-72
2021/12/22 12:50:25;;;;;;;13.43;9.32;;;2.20;99.90;;;;;;2121365;67;20290;-74
2021/12/22 12:53:07;;;;;;;10.25;7.82;;;2.40;99.90;;;;;;2113965;67;20979;-73
2021/12/22 12:55:39;;;;;;;13.00;8.60;;;2.70;99.90;;;;;;2110784;67;20370;-73
2021/12/22 12:58:31;;;;;;;10.73;8.10;;;2.90;99.90;;;;;;2113531;67;20573;-73
2021/12/22 13:01:09;;;;;;;11.10;8.05;;;3.00;99.90;;;;;;2115820;67;20191;-72
2021/12/22 13:03:48;;;;;;;14.10;7.90;;;3.10;99.90;;;;;;2131098;67;20348;-71
2021/12/22 13:06:47;;;;;;;12.88;7.85;;;3.10;99.90;;;;;;2134169;66;20197;-74
2021/12/22 13:09:54;;;;;;;11.98;8.25;;;3.20;99.90;;;;;;2152499;66;20193;-74
2021/12/22 13:18:29;;;;;;;11.50;8.23;;;3.30;99.90;;;;;;2170727;65;20340;-76
2021/12/22 13:21:07;;;;;;;12.05;7.97;;;3.30;99.90;;;;;;2179366;65;20204;-73
2021/12/22 13:23:40;;;;;;;14.55;8.43;;;4.10;99.90;;;;;;2178446;64;20218;-74
2021/12/22 13:26:18;;;;;;;11.35;7.90;;;3.60;99.90;;;;;;2209644;64;20219;-71
2021/12/22 13:28:55;;;;;;;12.63;8.52;;;2.80;99.90;;;;;;2226923;64;20186;-72
2021/12/22 13:31:35;;;;;;;10.27;7.32;;;2.60;99.90;;;;;;2226687;64;20205;-71
2021/12/22 13:34:11;;;;;;;12.80;8.18;;;2.50;99.90;;;;;;2226762;64;20584;-73
2021/12/22 13:36:58;;;;;;;13.23;8.48;;;2.40;99.90;;;;;;2231557;63;20303;-77
2021/12/22 13:39:45;;;;;;;10.95;7.60;;;2.30;99.90;;;;;;2244741;63;20224;-73
2021/12/22 13:42:38;;;;;;;13.88;8.02;;;2.20;99.90;;;;;;2233044;63;20195;-73
2021/12/22 13:45:22;;;;;;;13.35;9.05;;;2.10;99.90;;;;;;2231426;63;21085;-77
2021/12/22 13:47:58;;;;;;;15.38;7.82;;;2.00;99.90;;;;;;2234024;63;20191;-73
2021/12/22 13:50:41;;;;;;;12.82;8.32;;;1.90;99.90;;;;;;2235674;63;20270;-75
2021/12/22 13:53:20;;;;;;;13.05;8.43;;;1.80;99.90;;;;;;2233171;63;20681;-73
2021/12/22 13:56:02;;;;;;;14.95;9.40;;;1.60;99.90;;;;;;2228321;64;20170;-74
2021/12/22 13:58:54;;;;;;;12.60;8.25;;;1.50;99.90;;;;;;2219921;64;20160;-75
2021/12/22 14:01:44;;;;;;;15.85;9.40;;;1.40;99.90;;;;;;2212727;64;20584;-73
2021/12/22 14:04:36;;;;;;;15.52;9.18;;;1.20;99.90;;;;;;2198422;65;20815;-74
2021/12/22 14:07:23;;;;;;;11.55;8.73;;;1.00;99.90;;;;;;2198147;65;20225;-71
2021/12/22 14:10:11;;;;;;;15.20;9.73;;;0.90;99.90;;;;;;2186967;65;20189;-72
2021/12/22 14:13:01;;;;;;;13.85;9.05;;;0.80;99.90;;;;;;2175685;65;20180;-72
2021/12/22 14:15:45;;;;;;;11.65;9.20;;;0.70;99.90;;;;;;2181624;65;20458;-73
2021/12/22 14:18:52;;;;;;;15.25;9.35;;;0.70;99.90;;;;;;2168468;65;20365;-71
2021/12/22 14:21:34;;;;;;;15.98;9.13;;;0.50;99.90;;;;;;2160256;66;20253;-77
2021/12/22 14:24:59;;;;;;;13.00;8.95;;;1.30;99.90;;;;;;2152755;66;20287;-75
2021/12/22 14:27:45;;;;;;;;;;;0.50;99.90;;;;;;2149932;66;20333;-72